createdAt,value
2019-02-27T00:00:43.960Z,99.50
2019-02-27T00:03:13.789Z,99.60
2019-02-27T00:05:42.798Z,99.60
2019-02-27T00:08:11.790Z,99.70
2019-02-27T00:10:40.714Z,99.70
2019-02-27T00:13:17.946Z,99.80
2019-02-27T00:15:47.018Z,99.80
2019-02-27T00:18:15.869Z,99.70
2019-02-27T00:20:44.809Z,99.60
2019-02-27T00:23:13.809Z,99.50
2019-02-27T00:25:42.814Z,99.80
2019-02-27T00:28:11.761Z,99.30
2019-02-27T00:30:40.693Z,98.60
2019-02-27T00:33:10.026Z,98.40
2019-02-27T00:35:39.630Z,98.30
2019-02-27T00:38:08.822Z,98.60
2019-02-27T00:40:39.351Z,98.60
2019-02-27T00:43:08.501Z,98.70
2019-02-27T00:45:39.687Z,98.70
2019-02-27T00:48:08.430Z,98.90
2019-02-27T00:50:39.100Z,99.20
2019-02-27T00:53:08.149Z,99.40
2019-02-27T00:55:39.329Z,99.90
2019-02-27T00:58:07.878Z,99.60
2019-02-27T01:00:39.312Z,99.60
2019-02-27T01:03:10.206Z,99.10
2019-02-27T01:05:41.206Z,98.40
2019-02-27T01:08:10.225Z,98.30
2019-02-27T01:10:39.237Z,98.00
2019-02-27T01:13:08.270Z,98.40
2019-02-27T01:15:37.274Z,98.40
2019-02-27T01:18:06.291Z,98.50
2019-02-27T01:20:35.317Z,98.60
2019-02-27T01:23:04.723Z,99.00
2019-02-27T01:25:33.752Z,98.70
2019-02-27T01:28:02.798Z,98.90
2019-02-27T01:30:31.933Z,98.90
2019-02-27T01:33:03.978Z,98.10
2019-02-27T01:35:31.729Z,97.60
2019-02-27T01:38:05.124Z,98.00
2019-02-27T01:40:31.522Z,98.40
2019-02-27T01:43:05.472Z,97.80
2019-02-27T01:45:31.309Z,97.40
2019-02-27T01:48:00.314Z,97.20
2019-02-27T01:50:34.653Z,96.90
2019-02-27T01:53:07.024Z,96.60
2019-02-27T01:55:35.161Z,96.80
2019-02-27T01:58:04.465Z,96.80
2019-02-27T02:00:33.634Z,96.70
2019-02-27T02:03:02.654Z,96.60
2019-02-27T02:05:32.002Z,96.80
2019-02-27T02:08:01.109Z,96.70
2019-02-27T02:10:30.105Z,96.90
2019-02-27T02:13:14.823Z,97.10
2019-02-27T02:16:41.837Z,97.40
2019-02-27T02:19:37.483Z,97.50
2019-02-27T02:22:41.937Z,98.00
2019-02-27T02:25:30.776Z,98.00
2019-02-27T02:28:39.787Z,98.20
2019-02-27T02:31:19.139Z,98.60
2019-02-27T02:34:16.377Z,98.90
2019-02-27T02:37:23.962Z,99.20
2019-02-27T02:40:17.323Z,99.40
2019-02-27T02:43:30.083Z,99.90
2019-02-27T02:46:14.249Z,99.90
2019-02-27T02:49:15.155Z,99.90
2019-02-27T02:52:12.789Z,99.90
2019-02-27T02:55:03.865Z,99.90
2019-02-27T02:58:23.278Z,99.90
2019-02-27T03:01:07.238Z,99.90
2019-02-27T03:04:12.560Z,99.90
2019-02-27T03:07:22.007Z,99.90
2019-02-27T03:10:42.894Z,99.90
2019-02-27T03:14:07.138Z,99.90
2019-02-27T03:16:54.836Z,99.90
2019-02-27T03:19:41.778Z,99.90
2019-02-27T03:22:49.905Z,99.90
2019-02-27T03:25:54.374Z,99.90
2019-02-27T03:29:00.488Z,99.90
2019-02-27T03:32:01.264Z,99.90
2019-02-27T03:35:13.287Z,99.90
2019-02-27T03:37:53.946Z,99.90
2019-02-27T03:41:12.902Z,99.90
2019-02-27T03:43:49.382Z,99.90
2019-02-27T03:46:47.003Z,99.90
2019-02-27T03:49:52.480Z,99.90
2019-02-27T03:52:43.928Z,99.90
2019-02-27T03:55:51.671Z,99.90
2019-02-27T03:59:05.566Z,99.90
2019-02-27T04:02:35.346Z,99.90
2019-02-27T04:05:41.026Z,99.90
2019-02-27T04:08:53.238Z,99.90
2019-02-27T04:11:22.233Z,99.90
2019-02-27T04:13:51.237Z,99.90
2019-02-27T04:16:20.254Z,99.90
2019-02-27T04:18:49.169Z,99.90
2019-02-27T04:21:25.065Z,99.90
2019-02-27T04:23:49.357Z,99.90
2019-02-27T04:26:19.418Z,99.90
2019-02-27T04:28:48.681Z,99.90
2019-02-27T04:31:17.606Z,99.90
2019-02-27T04:33:46.510Z,99.90
2019-02-27T04:36:15.666Z,99.90
2019-02-27T04:38:44.679Z,99.90
2019-02-27T04:41:17.831Z,99.90
2019-02-27T04:43:44.162Z,99.90
2019-02-27T04:46:13.086Z,99.90
2019-02-27T04:48:42.021Z,99.90
2019-02-27T04:51:11.335Z,99.90
2019-02-27T04:53:40.845Z,99.90
2019-02-27T04:56:29.118Z,99.90
2019-02-27T04:58:58.046Z,99.90
2019-02-27T05:01:27.042Z,99.90
2019-02-27T05:03:55.911Z,99.90
2019-02-27T05:06:24.901Z,99.90
2019-02-27T05:08:53.757Z,99.90
2019-02-27T05:11:22.953Z,99.90
2019-02-27T05:13:54.367Z,99.90
2019-02-27T05:16:23.121Z,99.90
2019-02-27T05:18:52.305Z,99.90
2019-02-27T05:21:21.481Z,99.90
2019-02-27T05:23:50.417Z,99.90
2019-02-27T05:26:19.816Z,99.90
2019-02-27T05:28:49.081Z,99.90
2019-02-27T05:31:19.011Z,99.90
2019-02-27T05:33:48.189Z,99.90
2019-02-27T05:36:17.097Z,99.90
2019-02-27T05:38:45.961Z,99.90
2019-02-27T05:41:15.113Z,99.90
2019-02-27T05:43:47.510Z,99.90
2019-02-27T05:46:15.181Z,99.90
2019-02-27T05:48:44.149Z,99.90
2019-02-27T05:51:12.990Z,99.90
2019-02-27T05:53:41.910Z,99.90
2019-02-27T05:56:15.493Z,99.90
2019-02-27T05:58:41.801Z,99.90
2019-02-27T06:01:10.992Z,99.90
2019-02-27T06:03:40.014Z,99.90
2019-02-27T06:06:11.556Z,99.90
2019-02-27T06:08:39.901Z,99.90
2019-02-27T06:11:09.123Z,99.90
2019-02-27T06:13:38.308Z,99.90
2019-02-27T06:16:09.153Z,99.90
2019-02-27T06:18:38.664Z,99.90
2019-02-27T06:21:07.840Z,99.90
2019-02-27T06:23:37.841Z,99.90
2019-02-27T06:26:07.520Z,99.90
2019-02-27T06:28:36.779Z,99.90
2019-02-27T06:31:05.764Z,99.90
2019-02-27T06:33:34.688Z,99.90
2019-02-27T06:36:05.347Z,99.90
2019-02-27T06:38:34.261Z,99.90
2019-02-27T06:41:03.109Z,99.90
2019-02-27T06:43:32.062Z,99.90
2019-02-27T06:46:01.037Z,99.90
2019-02-27T06:48:29.892Z,99.90
2019-02-27T06:51:01.004Z,99.90
2019-02-27T06:53:29.389Z,99.90
2019-02-27T06:56:02.976Z,99.90
2019-02-27T06:58:29.105Z,99.90
2019-02-27T07:00:58.020Z,99.90
2019-02-27T07:03:29.193Z,99.90
2019-02-27T07:05:58.205Z,99.90
2019-02-27T07:08:28.882Z,99.90
2019-02-27T07:11:07.236Z,99.90
2019-02-27T07:13:29.920Z,99.90
2019-02-27T07:15:59.077Z,99.90
2019-02-27T07:18:28.158Z,99.90
2019-02-27T07:20:58.438Z,99.90
2019-02-27T07:23:27.833Z,99.90
2019-02-27T07:25:56.847Z,99.90
2019-02-27T07:28:25.689Z,99.90
2019-02-27T07:30:54.601Z,99.90
2019-02-27T07:33:23.865Z,99.90
2019-02-27T07:35:52.786Z,99.90
2019-02-27T07:38:22.254Z,99.30
2019-02-27T07:40:51.305Z,98.70
2019-02-27T07:43:20.145Z,98.40
2019-02-27T07:45:49.417Z,98.00
2019-02-27T07:48:18.346Z,98.10
2019-02-27T07:50:49.207Z,97.60
2019-02-27T07:53:18.338Z,97.00
2019-02-27T07:55:47.598Z,97.00
2019-02-27T07:58:16.850Z,96.80
2019-02-27T08:00:47.191Z,96.50
2019-02-27T08:03:16.677Z,96.50
2019-02-27T08:05:45.777Z,96.50
2019-02-27T08:08:14.765Z,96.30
2019-02-27T08:10:45.213Z,95.90
2019-02-27T08:13:14.271Z,95.60
2019-02-27T08:15:43.210Z,94.90
2019-02-27T08:18:12.170Z,94.80
2019-02-27T08:20:41.197Z,94.60
2019-02-27T08:23:10.110Z,94.50
2019-02-27T08:25:39.376Z,94.30
2019-02-27T08:28:08.280Z,94.30
2019-02-27T08:30:37.294Z,94.00
2019-02-27T08:33:08.428Z,93.30
2019-02-27T08:35:37.023Z,93.10
2019-02-27T08:38:05.866Z,92.60
2019-02-27T08:40:34.869Z,92.20
2019-02-27T08:43:03.877Z,91.80
2019-02-27T08:45:33.030Z,91.60
2019-02-27T08:48:01.951Z,93.80
2019-02-27T08:50:31.670Z,91.80
2019-02-27T08:53:01.687Z,88.10
2019-02-27T08:55:30.640Z,87.80
2019-02-27T08:57:59.636Z,88.90
2019-02-27T09:00:29.650Z,88.10
2019-02-27T09:03:02.532Z,87.30
2019-02-27T09:05:29.721Z,86.80
2019-02-27T09:07:59.378Z,86.10
2019-02-27T09:10:30.693Z,85.50
2019-02-27T09:13:05.265Z,85.60
2019-02-27T09:15:30.213Z,82.80
2019-02-27T09:18:01.800Z,82.00
2019-02-27T09:20:29.870Z,81.10
2019-02-27T09:22:58.785Z,82.30
2019-02-27T09:25:27.709Z,78.10
2019-02-27T09:27:56.698Z,76.50
2019-02-27T09:30:28.831Z,76.90
2019-02-27T09:32:56.423Z,75.10
2019-02-27T09:35:25.449Z,75.90
2019-02-27T09:37:54.469Z,74.40
2019-02-27T09:40:23.641Z,75.20
2019-02-27T09:42:53.032Z,73.00
2019-02-27T09:45:27.962Z,73.30
2019-02-27T09:47:59.611Z,72.70
2019-02-27T09:50:48.330Z,72.00
2019-02-27T09:53:16.533Z,68.80
2019-02-27T09:55:45.569Z,65.60
2019-02-27T09:58:14.489Z,65.30
2019-02-27T10:00:48.826Z,67.00
2019-02-27T10:03:21.126Z,64.90
2019-02-27T10:05:48.816Z,62.30
2019-02-27T10:08:17.822Z,60.70
2019-02-27T10:10:46.804Z,58.90
2019-02-27T10:13:15.793Z,56.40
2019-02-27T10:15:44.809Z,53.80
2019-02-27T10:18:18.333Z,54.50
2019-02-27T10:20:44.925Z,55.10
2019-02-27T10:23:13.913Z,53.50
2019-02-27T10:25:43.614Z,54.30
2019-02-27T10:28:13.121Z,53.90
2019-02-27T10:30:42.109Z,53.20
2019-02-27T10:33:11.914Z,52.60
2019-02-27T10:35:40.938Z,56.20
2019-02-27T10:38:09.890Z,51.40
2019-02-27T10:40:38.869Z,50.50
2019-02-27T10:43:08.157Z,48.30
2019-02-27T10:45:37.249Z,44.40
2019-02-27T10:48:06.185Z,46.10
2019-02-27T10:50:36.128Z,44.20
2019-02-27T10:53:05.391Z,45.30
2019-02-27T10:55:34.382Z,44.90
2019-02-27T10:58:03.403Z,42.20
2019-02-27T11:00:32.641Z,42.70
2019-02-27T11:03:01.829Z,41.10
2019-02-27T11:05:31.750Z,39.10
2019-02-27T11:08:00.780Z,36.80
2019-02-27T11:10:29.809Z,38.00
2019-02-27T11:12:58.850Z,37.10
2019-02-27T11:15:27.883Z,36.40
2019-02-27T11:17:57.423Z,36.40
2019-02-27T11:20:26.446Z,37.50
2019-02-27T11:22:55.497Z,35.00
2019-02-27T11:25:24.719Z,34.40
2019-02-27T11:27:53.814Z,33.70
2019-02-27T11:30:25.133Z,34.30
2019-02-27T11:32:57.067Z,34.60
2019-02-27T11:35:25.930Z,32.10
2019-02-27T11:37:55.146Z,34.70
2019-02-27T11:40:24.374Z,33.70
2019-02-27T11:42:53.468Z,32.30
2019-02-27T11:45:24.646Z,31.50
2019-02-27T11:47:53.463Z,33.50
2019-02-27T11:50:22.472Z,33.80
2019-02-27T11:52:52.021Z,33.00
2019-02-27T11:55:21.182Z,32.40
2019-02-27T11:57:50.219Z,32.20
2019-02-27T12:00:23.481Z,31.70
2019-02-27T12:02:52.477Z,33.20
2019-02-27T12:05:22.206Z,30.90
2019-02-27T12:07:51.921Z,31.20
2019-02-27T12:10:22.393Z,30.20
2019-02-27T12:12:51.401Z,30.00
2019-02-27T12:15:20.769Z,31.70
2019-02-27T12:17:49.799Z,30.90
2019-02-27T12:20:20.181Z,29.30
2019-02-27T12:22:49.277Z,29.90
2019-02-27T12:25:19.012Z,31.20
2019-02-27T12:27:50.094Z,29.20
2019-02-27T12:30:19.972Z,28.40
2019-02-27T12:32:49.200Z,29.60
2019-02-27T12:35:28.823Z,29.30
2019-02-27T12:37:57.831Z,29.00
2019-02-27T12:40:26.931Z,27.80
2019-02-27T12:42:56.113Z,29.50
2019-02-27T12:45:26.736Z,28.20
2019-02-27T12:47:56.301Z,27.60
2019-02-27T12:50:27.055Z,26.80
2019-02-27T12:52:56.261Z,26.60
2019-02-27T12:55:26.023Z,27.70
2019-02-27T12:57:55.013Z,26.70
2019-02-27T13:00:26.324Z,26.40
2019-02-27T13:02:55.770Z,26.10
2019-02-27T13:05:27.365Z,26.50
2019-02-27T13:07:55.597Z,25.20
2019-02-27T13:10:24.618Z,26.70
2019-02-27T13:12:53.702Z,27.70
2019-02-27T13:15:23.890Z,26.10
2019-02-27T13:17:56.230Z,25.90
2019-02-27T13:20:24.969Z,25.10
2019-02-27T13:22:54.289Z,25.40
2019-02-27T13:25:24.104Z,25.20
2019-02-27T13:27:53.922Z,26.10
2019-02-27T13:30:23.557Z,27.20
2019-02-27T13:32:52.921Z,25.20
2019-02-27T13:35:23.243Z,26.30
2019-02-27T13:37:52.928Z,25.80
2019-02-27T13:40:21.949Z,25.90
2019-02-27T13:42:53.315Z,26.30
2019-02-27T13:45:23.198Z,25.50
2019-02-27T13:47:52.240Z,27.00
2019-02-27T13:50:23.583Z,26.90
2019-02-27T13:52:52.188Z,26.50
2019-02-27T13:55:21.469Z,26.70
2019-02-27T13:57:50.461Z,27.10
2019-02-27T14:00:22.012Z,25.90
2019-02-27T14:02:50.991Z,26.70
2019-02-27T14:05:19.994Z,27.40
2019-02-27T14:07:49.069Z,26.90
2019-02-27T14:10:20.610Z,27.30
2019-02-27T14:12:48.999Z,26.40
2019-02-27T14:15:18.510Z,27.30
2019-02-27T14:17:47.504Z,27.20
2019-02-27T14:20:17.818Z,26.80
2019-02-27T14:22:46.820Z,27.10
2019-02-27T14:25:18.226Z,27.70
2019-02-27T14:27:48.085Z,27.40
2019-02-27T14:30:21.965Z,27.90
2019-02-27T14:32:51.076Z,28.00
2019-02-27T14:35:20.001Z,27.90
2019-02-27T14:37:50.231Z,27.20
2019-02-27T14:40:20.518Z,28.10
2019-02-27T14:42:53.950Z,28.80
2019-02-27T14:45:21.245Z,28.30
2019-02-27T14:47:50.640Z,29.00
2019-02-27T14:50:21.113Z,29.60
2019-02-27T14:52:50.330Z,29.60
2019-02-27T14:55:19.774Z,29.70
2019-02-27T14:57:51.038Z,29.50
2019-02-27T15:00:22.169Z,29.90
2019-02-27T15:02:52.165Z,29.60
2019-02-27T15:05:21.350Z,29.60
2019-02-27T15:07:53.664Z,29.40
2019-02-27T15:10:21.701Z,30.00
2019-02-27T15:12:53.986Z,29.90
2019-02-27T15:15:23.527Z,29.30
2019-02-27T15:17:52.556Z,30.00
2019-02-27T15:20:22.206Z,29.80
2019-02-27T15:22:52.564Z,30.60
2019-02-27T15:25:21.985Z,30.50
2019-02-27T15:27:50.965Z,30.60
2019-02-27T15:30:21.778Z,30.90
2019-02-27T15:32:51.393Z,30.60
2019-02-27T15:35:21.869Z,30.90
2019-02-27T15:37:51.662Z,31.60
2019-02-27T15:40:21.796Z,32.10
2019-02-27T15:42:50.826Z,32.20
2019-02-27T15:45:20.435Z,31.90
2019-02-27T15:47:50.710Z,32.80
2019-02-27T15:50:22.934Z,32.60
2019-02-27T15:52:51.791Z,33.80
2019-02-27T15:55:20.811Z,34.00
2019-02-27T15:57:53.536Z,33.70
2019-02-27T16:00:21.843Z,32.80
2019-02-27T16:02:52.767Z,33.00
2019-02-27T16:05:22.546Z,34.10
2019-02-27T16:07:52.581Z,35.50
2019-02-27T16:10:22.562Z,36.00
2019-02-27T16:15:41.481Z,37.90
2019-02-27T16:18:13.774Z,37.80
2019-02-27T16:20:42.817Z,39.00
2019-02-27T16:23:11.752Z,38.40
2019-02-27T16:25:41.018Z,39.10
2019-02-27T16:28:11.957Z,40.00
2019-02-27T16:30:40.845Z,40.20
2019-02-27T16:33:09.847Z,40.70
2019-02-27T16:35:41.946Z,42.30
2019-02-27T16:38:09.733Z,41.50
2019-02-27T16:40:38.769Z,42.60
2019-02-27T16:43:10.264Z,42.20
2019-02-27T16:45:38.658Z,43.30
2019-02-27T16:48:07.670Z,44.60
2019-02-27T16:50:36.657Z,43.60
2019-02-27T16:53:05.585Z,44.70
2019-02-27T16:55:36.921Z,45.60
2019-02-27T16:58:05.311Z,46.60
2019-02-27T17:00:34.745Z,47.60
2019-02-27T17:03:04.208Z,47.60
2019-02-27T17:05:33.766Z,47.60
2019-02-27T17:08:02.945Z,47.70
2019-02-27T17:10:31.909Z,49.30
2019-02-27T17:13:00.925Z,49.40
2019-02-27T17:15:34.789Z,49.90
2019-02-27T17:18:01.389Z,49.70
2019-02-27T17:20:30.652Z,50.40
2019-02-27T17:22:59.660Z,51.50
2019-02-27T17:25:29.910Z,52.70
2019-02-27T17:27:59.203Z,53.20
2019-02-27T17:30:29.961Z,53.50
2019-02-27T17:33:01.341Z,53.90
2019-02-27T17:35:30.050Z,54.40
2019-02-27T17:37:58.986Z,54.70
2019-02-27T17:40:29.189Z,54.20
2019-02-27T17:42:58.751Z,55.70
2019-02-27T17:45:28.275Z,56.00
2019-02-27T17:47:57.573Z,56.10
2019-02-27T17:50:31.245Z,55.90
2019-02-27T17:52:57.234Z,56.40
2019-02-27T17:55:26.237Z,56.40
2019-02-27T17:57:57.945Z,57.40
2019-02-27T18:00:37.852Z,56.70
2019-02-27T18:03:07.253Z,57.20
2019-02-27T18:05:36.718Z,57.70
2019-02-27T18:08:05.738Z,58.90
2019-02-27T18:10:37.591Z,59.00
2019-02-27T18:13:05.800Z,59.30
2019-02-27T18:15:35.322Z,59.90
2019-02-27T18:18:07.501Z,60.70
2019-02-27T18:20:35.375Z,60.60
2019-02-27T18:23:04.423Z,61.10
2019-02-27T18:25:33.426Z,61.40
2019-02-27T18:28:02.282Z,62.50
2019-02-27T18:30:31.353Z,62.90
2019-02-27T18:33:01.212Z,62.80
2019-02-27T18:35:30.408Z,62.20
2019-02-27T18:37:59.642Z,63.20
2019-02-27T18:40:28.649Z,64.30
2019-02-27T18:43:17.125Z,64.30
2019-02-27T18:45:48.134Z,64.50
2019-02-27T18:48:17.767Z,65.60
2019-02-27T18:50:47.126Z,65.80
2019-02-27T18:53:16.729Z,66.80
2019-02-27T18:55:47.666Z,66.80
2019-02-27T18:58:18.231Z,67.40
2019-02-27T19:00:48.154Z,67.80
2019-02-27T19:03:39.563Z,68.00
2019-02-27T19:06:12.105Z,69.00
2019-02-27T19:08:40.207Z,69.90
2019-02-27T19:11:09.733Z,71.00
2019-02-27T19:13:39.349Z,72.10
2019-02-27T19:16:08.855Z,72.60
2019-02-27T19:18:38.478Z,73.10
2019-02-27T19:21:09.643Z,73.60
2019-02-27T19:23:38.946Z,74.60
2019-02-27T19:26:09.368Z,75.50
2019-02-27T19:28:38.980Z,76.40
2019-02-27T19:31:09.286Z,76.60
2019-02-27T19:33:38.455Z,76.30
2019-02-27T19:36:08.184Z,77.90
2019-02-27T19:38:37.457Z,78.40
2019-02-27T19:41:06.486Z,79.10
2019-02-27T19:43:35.622Z,79.70
2019-02-27T19:46:06.948Z,80.10
2019-02-27T19:48:37.079Z,81.30
2019-02-27T19:51:06.337Z,81.60
2019-02-27T19:53:39.426Z,82.30
2019-02-27T19:56:07.093Z,82.70
2019-02-27T19:58:36.263Z,83.60
2019-02-27T20:01:08.630Z,84.20
2019-02-27T20:03:36.409Z,84.20
2019-02-27T20:06:05.535Z,85.30
2019-02-27T20:08:34.878Z,85.60
2019-02-27T20:11:05.972Z,86.00
2019-02-27T20:13:34.701Z,86.80
2019-02-27T20:16:03.722Z,87.00
2019-02-27T20:18:32.733Z,87.70
2019-02-27T20:21:01.880Z,88.60
2019-02-27T20:23:30.805Z,88.10
2019-02-27T20:25:59.814Z,88.70
2019-02-27T20:28:31.817Z,89.20
2019-02-27T20:31:21.011Z,89.20
2019-02-27T20:33:52.214Z,90.00
2019-02-27T20:36:24.050Z,90.20
2019-02-27T20:38:54.383Z,90.30
2019-02-27T20:41:26.535Z,90.50
2019-02-27T20:43:55.570Z,90.80
2019-02-27T20:46:24.887Z,91.20
2019-02-27T20:48:54.093Z,91.20
2019-02-27T20:51:23.289Z,91.30
2019-02-27T20:53:55.501Z,91.40
2019-02-27T20:56:26.226Z,91.80
2019-02-27T20:58:56.815Z,92.00
2019-02-27T21:01:26.361Z,92.20
2019-02-27T21:04:01.467Z,92.30
2019-02-27T21:06:28.324Z,92.60
2019-02-27T21:08:57.952Z,92.50
2019-02-27T21:11:29.493Z,92.60
2019-02-27T21:13:58.238Z,92.40
2019-02-27T21:16:27.830Z,92.50
2019-02-27T21:18:57.379Z,92.20
2019-02-27T21:21:26.707Z,91.90
2019-02-27T21:23:56.217Z,91.80
2019-02-27T21:26:25.559Z,91.80
2019-02-27T21:28:58.807Z,91.90
2019-02-27T21:31:32.654Z,91.90
2019-02-27T21:34:04.667Z,92.00
2019-02-27T21:36:36.647Z,91.80
2019-02-27T21:39:09.517Z,91.80
2019-02-27T21:41:42.364Z,91.80
2019-02-27T21:44:10.120Z,91.80
2019-02-27T21:46:46.219Z,91.30
2019-02-27T21:49:13.680Z,91.30
2019-02-27T21:51:47.848Z,91.50
2019-02-27T21:54:16.416Z,91.00
2019-02-27T21:56:45.930Z,90.90
2019-02-27T21:59:15.321Z,91.10
2019-02-27T22:01:44.758Z,91.10
2019-02-27T22:04:53.294Z,91.40
2019-02-27T22:07:32.923Z,91.50
2019-02-27T22:13:53.770Z,91.70
2019-02-27T22:22:34.434Z,92.30
2019-02-27T22:25:19.129Z,92.60
2019-02-27T22:29:43.600Z,92.60
2019-02-27T22:31:07.745Z,92.90
2019-02-27T22:36:37.496Z,93.20
2019-02-27T22:39:11.559Z,93.10
2019-02-27T22:41:59.811Z,93.50
2019-02-27T22:44:49.016Z,93.60
2019-02-27T22:47:24.312Z,93.70
2019-02-27T22:50:16.430Z,93.70
2019-02-27T22:53:19.855Z,93.80
2019-02-27T22:55:49.425Z,94.00
2019-02-27T22:58:43.098Z,93.90
2019-02-27T23:02:10.131Z,93.80
2019-02-27T23:04:53.539Z,93.60
2019-02-27T23:07:23.528Z,93.80
2019-02-27T23:10:00.375Z,94.10
2019-02-27T23:12:39.492Z,94.00
2019-02-27T23:15:25.453Z,94.00
2019-02-27T23:18:05.774Z,94.10
2019-02-27T23:20:56.244Z,94.00
2019-02-27T23:23:46.001Z,93.90
2019-02-27T23:29:33.248Z,93.90
2019-02-27T23:32:02.481Z,93.80
2019-02-27T23:34:31.665Z,93.90
2019-02-27T23:37:04.106Z,94.20
2019-02-27T23:39:34.052Z,94.20
2019-02-27T23:42:06.423Z,94.30
2019-02-27T23:44:38.208Z,94.60
2019-02-27T23:47:06.704Z,94.50
2019-02-27T23:49:39.521Z,94.50
2019-02-27T23:52:08.152Z,94.30
2019-02-27T23:54:37.447Z,94.40
2019-02-27T23:57:07.806Z,94.40
2019-02-27T23:59:37.388Z,94.50
